<?xml version="1.0" encoding="UTF-8" standalone="no" ?>
<gpx xmlns="http://www.topografix.com/GPX/1/1" xmlns:xsi="http://www.w3.org/2001/XMLSchema-instance" xsi:schemaLocation="http://www.topografix.com/GPX/1/1 http://www.topografix.com/GPX/1/1/gpx.xsd" version="1.1" creator="VisuGPX - https://www.visugpx.com">
  <metadata>
    <name>circuits du Buchholz 1</name>
  </metadata>
  <trk>
    <name><![CDATA[circuit de l etang St Vit - anneau bleu]]></name>
    <desc><![CDATA[anneau bleu]]></desc>
    <extensions>
      <line xmlns="http://www.topografix.com/GPX/gpx_style/0/2">
        <color>111212</color>
        <opacity>0.3</opacity>
        <width>1</width>
        <dasharray>2</dasharray>
      </line>
    </extensions>
    <trkseg>
      <trkpt lat="49.08888" lon="7.04301">
        <ele>250.87447</ele>
        <time>2021-09-08T12:29:21.000Z</time>
      </trkpt>
      <trkpt lat="49.08865" lon="7.04296">
        <ele>250.54382</ele>
        <time>2021-09-08T12:29:31.000Z</time>
      </trkpt>
      <trkpt lat="49.08858" lon="7.04287">
        <ele>250.41368</ele>
        <time>2021-09-08T12:29:41.000Z</time>
      </trkpt>
      <trkpt lat="49.0885" lon="7.04264">
        <ele>250.22625</ele>
        <time>2021-09-08T12:29:58.000Z</time>
      </trkpt>
      <trkpt lat="49.08843" lon="7.04227">
        <ele>249.98902</ele>
        <time>2021-09-08T12:30:17.000Z</time>
      </trkpt>
      <trkpt lat="49.08841" lon="7.04213">
        <ele>249.95364</ele>
        <time>2021-09-08T12:30:27.000Z</time>
      </trkpt>
      <trkpt lat="49.08838" lon="7.04201">
        <ele>249.86889</ele>
        <time>2021-09-08T12:30:32.000Z</time>
      </trkpt>
      <trkpt lat="49.08832" lon="7.04192">
        <ele>249.67178</ele>
        <time>2021-09-08T12:30:39.000Z</time>
      </trkpt>
      <trkpt lat="49.08825" lon="7.04188">
        <ele>249.31827</ele>
        <time>2021-09-08T12:30:51.000Z</time>
      </trkpt>
      <trkpt lat="49.08801" lon="7.04179">
        <ele>247.83518</ele>
        <time>2021-09-08T12:31:14.000Z</time>
      </trkpt>
      <trkpt lat="49.08786" lon="7.04186">
        <ele>246.63639</ele>
        <time>2021-09-08T12:31:28.000Z</time>
      </trkpt>
      <trkpt lat="49.08776" lon="7.04188">
        <ele>245.82736</ele>
        <time>2021-09-08T12:31:33.000Z</time>
      </trkpt>
      <trkpt lat="49.08761" lon="7.04196">
        <ele>244.79434</ele>
        <time>2021-09-08T12:31:49.000Z</time>
      </trkpt>
      <trkpt lat="49.08748" lon="7.04206">
        <ele>243.93631</ele>
        <time>2021-09-08T12:31:59.000Z</time>
      </trkpt>
      <trkpt lat="49.08731" lon="7.0421">
        <ele>242.8811</ele>
        <time>2021-09-08T12:32:15.000Z</time>
      </trkpt>
      <trkpt lat="49.08723" lon="7.04209">
        <ele>242.37714</ele>
        <time>2021-09-08T12:32:22.000Z</time>
      </trkpt>
      <trkpt lat="49.08707" lon="7.042">
        <ele>241.36626</ele>
        <time>2021-09-08T12:32:37.000Z</time>
      </trkpt>
      <trkpt lat="49.08699" lon="7.04197">
        <ele>240.95096</ele>
        <time>2021-09-08T12:32:48.000Z</time>
      </trkpt>
      <trkpt lat="49.08691" lon="7.04198">
        <ele>240.6024</ele>
        <time>2021-09-08T12:32:55.000Z</time>
      </trkpt>
      <trkpt lat="49.08683" lon="7.04196">
        <ele>240.31105</ele>
        <time>2021-09-08T12:33:04.000Z</time>
      </trkpt>
      <trkpt lat="49.08673" lon="7.04192">
        <ele>240.12683</ele>
        <time>2021-09-08T12:33:09.000Z</time>
      </trkpt>
      <trkpt lat="49.08657" lon="7.04192">
        <ele>240.08471</ele>
        <time>2021-09-08T12:33:19.000Z</time>
      </trkpt>
      <trkpt lat="49.08649" lon="7.04189">
        <ele>240.25678</ele>
        <time>2021-09-08T12:33:30.000Z</time>
      </trkpt>
      <trkpt lat="49.08641" lon="7.04191">
        <ele>240.42031</ele>
        <time>2021-09-08T12:33:37.000Z</time>
      </trkpt>
      <trkpt lat="49.08632" lon="7.04188">
        <ele>240.79312</ele>
        <time>2021-09-08T12:33:45.000Z</time>
      </trkpt>
      <trkpt lat="49.08625" lon="7.04189">
        <ele>241.08826</ele>
        <time>2021-09-08T12:33:50.000Z</time>
      </trkpt>
      <trkpt lat="49.08617" lon="7.04186">
        <ele>241.59095</ele>
        <time>2021-09-08T12:33:59.000Z</time>
      </trkpt>
      <trkpt lat="49.08609" lon="7.04191">
        <ele>241.77021</ele>
        <time>2021-09-08T12:34:13.000Z</time>
      </trkpt>
      <trkpt lat="49.08606" lon="7.04202">
        <ele>241.33036</ele>
        <time>2021-09-08T12:34:21.000Z</time>
      </trkpt>
      <trkpt lat="49.086" lon="7.0421">
        <ele>241.16543</ele>
        <time>2021-09-08T12:34:27.000Z</time>
      </trkpt>
      <trkpt lat="49.08592" lon="7.04215">
        <ele>241.24961</ele>
        <time>2021-09-08T12:34:33.000Z</time>
      </trkpt>
      <trkpt lat="49.08576" lon="7.04221">
        <ele>241.50425</ele>
        <time>2021-09-08T12:34:45.000Z</time>
      </trkpt>
      <trkpt lat="49.08552" lon="7.04225">
        <ele>242.22282</ele>
        <time>2021-09-08T12:35:04.000Z</time>
      </trkpt>
      <trkpt lat="49.08543" lon="7.04224">
        <ele>242.58766</ele>
        <time>2021-09-08T12:35:13.000Z</time>
      </trkpt>
      <trkpt lat="49.08535" lon="7.04227">
        <ele>242.6988</ele>
        <time>2021-09-08T12:35:18.000Z</time>
      </trkpt>
      <trkpt lat="49.08527" lon="7.04232">
        <ele>242.6134</ele>
        <time>2021-09-08T12:35:26.000Z</time>
      </trkpt>
      <trkpt lat="49.0851" lon="7.04236">
        <ele>242.89671</ele>
        <time>2021-09-08T12:35:42.000Z</time>
      </trkpt>
      <trkpt lat="49.08503" lon="7.04241">
        <ele>242.70529</ele>
        <time>2021-09-08T12:35:49.000Z</time>
      </trkpt>
      <trkpt lat="49.08503" lon="7.04254">
        <ele>241.58418</ele>
        <time>2021-09-08T12:36:10.000Z</time>
      </trkpt>
      <trkpt lat="49.08499" lon="7.04267">
        <ele>240.79274</ele>
        <time>2021-09-08T12:36:18.000Z</time>
      </trkpt>
      <trkpt lat="49.08487" lon="7.04282">
        <ele>240.32751</ele>
        <time>2021-09-08T12:36:29.000Z</time>
      </trkpt>
      <trkpt lat="49.0848" lon="7.04287">
        <ele>240.40756</ele>
        <time>2021-09-08T12:36:36.000Z</time>
      </trkpt>
      <trkpt lat="49.08471" lon="7.0429">
        <ele>240.6825</ele>
        <time>2021-09-08T12:36:41.000Z</time>
      </trkpt>
      <trkpt lat="49.08455" lon="7.04295">
        <ele>241.41704</ele>
        <time>2021-09-08T12:36:59.000Z</time>
      </trkpt>
      <trkpt lat="49.08439" lon="7.04296">
        <ele>242.27036</ele>
        <time>2021-09-08T12:37:21.000Z</time>
      </trkpt>
      <trkpt lat="49.0843" lon="7.04302">
        <ele>242.50607</ele>
        <time>2021-09-08T12:37:26.000Z</time>
      </trkpt>
      <trkpt lat="49.08421" lon="7.04303">
        <ele>242.87572</ele>
        <time>2021-09-08T12:37:33.000Z</time>
      </trkpt>
      <trkpt lat="49.08413" lon="7.04309">
        <ele>242.9563</ele>
        <time>2021-09-08T12:37:44.000Z</time>
      </trkpt>
      <trkpt lat="49.08405" lon="7.04311">
        <ele>243.17082</ele>
        <time>2021-09-08T12:37:52.000Z</time>
      </trkpt>
      <trkpt lat="49.08398" lon="7.04317">
        <ele>243.15543</ele>
        <time>2021-09-08T12:38:00.000Z</time>
      </trkpt>
      <trkpt lat="49.08384" lon="7.04327">
        <ele>243.17075</ele>
        <time>2021-09-08T12:38:13.000Z</time>
      </trkpt>
      <trkpt lat="49.08377" lon="7.04335">
        <ele>243.04731</ele>
        <time>2021-09-08T12:38:20.000Z</time>
      </trkpt>
      <trkpt lat="49.08369" lon="7.0434">
        <ele>243.02024</ele>
        <time>2021-09-08T12:38:25.000Z</time>
      </trkpt>
      <trkpt lat="49.0836" lon="7.04341">
        <ele>243.0954</ele>
        <time>2021-09-08T12:38:51.000Z</time>
      </trkpt>
      <trkpt lat="49.08355" lon="7.04366">
        <ele>242.52795</ele>
        <time>2021-09-08T12:39:35.000Z</time>
      </trkpt>
      <trkpt lat="49.0835" lon="7.04377">
        <ele>242.32591</ele>
        <time>2021-09-08T12:39:43.000Z</time>
      </trkpt>
      <trkpt lat="49.08345" lon="7.04401">
        <ele>241.88733</ele>
        <time>2021-09-08T12:39:59.000Z</time>
      </trkpt>
      <trkpt lat="49.0834" lon="7.04412">
        <ele>241.75131</ele>
        <time>2021-09-08T12:40:07.000Z</time>
      </trkpt>
      <trkpt lat="49.08334" lon="7.0442">
        <ele>241.67511</ele>
        <time>2021-09-08T12:40:13.000Z</time>
      </trkpt>
      <trkpt lat="49.08332" lon="7.0443">
        <ele>241.52443</ele>
        <time>2021-09-08T12:40:18.000Z</time>
      </trkpt>
      <trkpt lat="49.08332" lon="7.04443">
        <ele>241.30159</ele>
        <time>2021-09-08T12:40:25.000Z</time>
      </trkpt>
      <trkpt lat="49.0833" lon="7.04456">
        <ele>241.0938</ele>
        <time>2021-09-08T12:40:33.000Z</time>
      </trkpt>
      <trkpt lat="49.08324" lon="7.04467">
        <ele>240.98035</ele>
        <time>2021-09-08T12:40:38.000Z</time>
      </trkpt>
      <trkpt lat="49.08321" lon="7.04478">
        <ele>240.84451</ele>
        <time>2021-09-08T12:40:47.000Z</time>
      </trkpt>
      <trkpt lat="49.08315" lon="7.04489">
        <ele>240.76709</ele>
        <time>2021-09-08T12:40:52.000Z</time>
      </trkpt>
      <trkpt lat="49.0831" lon="7.04499">
        <ele>240.68159</ele>
        <time>2021-09-08T12:40:58.000Z</time>
      </trkpt>
      <trkpt lat="49.08309" lon="7.04512">
        <ele>240.55925</ele>
        <time>2021-09-08T12:41:04.000Z</time>
      </trkpt>
      <trkpt lat="49.08303" lon="7.04536">
        <ele>240.46356</ele>
        <time>2021-09-08T12:41:18.000Z</time>
      </trkpt>
      <trkpt lat="49.08302" lon="7.04549">
        <ele>240.42107</ele>
        <time>2021-09-08T12:41:26.000Z</time>
      </trkpt>
      <trkpt lat="49.08291" lon="7.0457">
        <ele>240.39295</ele>
        <time>2021-09-08T12:41:41.000Z</time>
      </trkpt>
      <trkpt lat="49.08288" lon="7.04581">
        <ele>240.33211</ele>
        <time>2021-09-08T12:41:47.000Z</time>
      </trkpt>
      <trkpt lat="49.0829" lon="7.04593">
        <ele>240.23221</ele>
        <time>2021-09-08T12:41:55.000Z</time>
      </trkpt>
      <trkpt lat="49.08288" lon="7.04606">
        <ele>240.111</ele>
        <time>2021-09-08T12:41:59.000Z</time>
      </trkpt>
      <trkpt lat="49.08282" lon="7.04614">
        <ele>240.01864</ele>
        <time>2021-09-08T12:42:06.000Z</time>
      </trkpt>
      <trkpt lat="49.08279" lon="7.04624">
        <ele>239.89618</ele>
        <time>2021-09-08T12:42:11.000Z</time>
      </trkpt>
      <trkpt lat="49.08274" lon="7.04636">
        <ele>239.74982</ele>
        <time>2021-09-08T12:42:16.000Z</time>
      </trkpt>
      <trkpt lat="49.08277" lon="7.04649">
        <ele>239.58295</ele>
        <time>2021-09-08T12:42:24.000Z</time>
      </trkpt>
      <trkpt lat="49.08274" lon="7.04661">
        <ele>239.46365</ele>
        <time>2021-09-08T12:42:33.000Z</time>
      </trkpt>
      <trkpt lat="49.0827" lon="7.04673">
        <ele>239.39142</ele>
        <time>2021-09-08T12:42:39.000Z</time>
      </trkpt>
      <trkpt lat="49.08263" lon="7.04681">
        <ele>239.40209</ele>
        <time>2021-09-08T12:42:44.000Z</time>
      </trkpt>
      <trkpt lat="49.08258" lon="7.04691">
        <ele>239.40172</ele>
        <time>2021-09-08T12:42:52.000Z</time>
      </trkpt>
      <trkpt lat="49.08251" lon="7.04715">
        <ele>239.43689</ele>
        <time>2021-09-08T12:43:09.000Z</time>
      </trkpt>
      <trkpt lat="49.08252" lon="7.0473">
        <ele>239.42219</ele>
        <time>2021-09-08T12:43:14.000Z</time>
      </trkpt>
      <trkpt lat="49.08254" lon="7.04742">
        <ele>239.33674</ele>
        <time>2021-09-08T12:43:20.000Z</time>
      </trkpt>
      <trkpt lat="49.08255" lon="7.04755">
        <ele>239.20123</ele>
        <time>2021-09-08T12:43:26.000Z</time>
      </trkpt>
      <trkpt lat="49.0825" lon="7.04766">
        <ele>239.11265</ele>
        <time>2021-09-08T12:43:35.000Z</time>
      </trkpt>
      <trkpt lat="49.08243" lon="7.04774">
        <ele>239.02815</ele>
        <time>2021-09-08T12:43:47.000Z</time>
      </trkpt>
      <trkpt lat="49.08247" lon="7.04785">
        <ele>238.70105</ele>
        <time>2021-09-08T12:44:43.000Z</time>
      </trkpt>
      <trkpt lat="49.08255" lon="7.04791">
        <ele>238.39542</ele>
        <time>2021-09-08T12:44:51.000Z</time>
      </trkpt>
      <trkpt lat="49.08262" lon="7.04796">
        <ele>238.04893</ele>
        <time>2021-09-08T12:45:00.000Z</time>
      </trkpt>
      <trkpt lat="49.08268" lon="7.04804">
        <ele>237.57832</ele>
        <time>2021-09-08T12:45:08.000Z</time>
      </trkpt>
      <trkpt lat="49.08276" lon="7.0481">
        <ele>237.09614</ele>
        <time>2021-09-08T12:45:17.000Z</time>
      </trkpt>
      <trkpt lat="49.08292" lon="7.04818">
        <ele>236.15092</ele>
        <time>2021-09-08T12:45:31.000Z</time>
      </trkpt>
      <trkpt lat="49.083" lon="7.04825">
        <ele>235.57448</ele>
        <time>2021-09-08T12:45:50.000Z</time>
      </trkpt>
      <trkpt lat="49.08308" lon="7.04826">
        <ele>235.14004</ele>
        <time>2021-09-08T12:45:57.000Z</time>
      </trkpt>
      <trkpt lat="49.08315" lon="7.04831">
        <ele>234.66392</ele>
        <time>2021-09-08T12:46:05.000Z</time>
      </trkpt>
      <trkpt lat="49.08338" lon="7.04845">
        <ele>233.11453</ele>
        <time>2021-09-08T12:46:22.000Z</time>
      </trkpt>
      <trkpt lat="49.08362" lon="7.04879">
        <ele>231.31918</ele>
        <time>2021-09-08T12:46:45.000Z</time>
      </trkpt>
      <trkpt lat="49.08369" lon="7.04887">
        <ele>230.8801</ele>
        <time>2021-09-08T12:46:52.000Z</time>
      </trkpt>
      <trkpt lat="49.08384" lon="7.04896">
        <ele>230.19755</ele>
        <time>2021-09-08T12:47:05.000Z</time>
      </trkpt>
      <trkpt lat="49.084" lon="7.04903">
        <ele>229.7119</ele>
        <time>2021-09-08T12:47:22.000Z</time>
      </trkpt>
      <trkpt lat="49.08408" lon="7.0491">
        <ele>229.55234</ele>
        <time>2021-09-08T12:47:28.000Z</time>
      </trkpt>
      <trkpt lat="49.08415" lon="7.04914">
        <ele>229.49317</ele>
        <time>2021-09-08T12:47:33.000Z</time>
      </trkpt>
      <trkpt lat="49.08422" lon="7.04919">
        <ele>229.49032</ele>
        <time>2021-09-08T12:47:39.000Z</time>
      </trkpt>
      <trkpt lat="49.08429" lon="7.04928">
        <ele>229.5434</ele>
        <time>2021-09-08T12:47:44.000Z</time>
      </trkpt>
      <trkpt lat="49.08435" lon="7.04935">
        <ele>229.6526</ele>
        <time>2021-09-08T12:47:52.000Z</time>
      </trkpt>
      <trkpt lat="49.08441" lon="7.04944">
        <ele>229.77707</ele>
        <time>2021-09-08T12:48:00.000Z</time>
      </trkpt>
      <trkpt lat="49.08439" lon="7.0497">
        <ele>229.58035</ele>
        <time>2021-09-08T12:48:13.000Z</time>
      </trkpt>
      <trkpt lat="49.08442" lon="7.04982">
        <ele>229.5554</ele>
        <time>2021-09-08T12:48:20.000Z</time>
      </trkpt>
      <trkpt lat="49.08437" lon="7.04994">
        <ele>229.31993</ele>
        <time>2021-09-08T12:48:27.000Z</time>
      </trkpt>
      <trkpt lat="49.08422" lon="7.05023">
        <ele>228.6279</ele>
        <time>2021-09-08T12:48:49.000Z</time>
      </trkpt>
      <trkpt lat="49.08421" lon="7.05036">
        <ele>228.48902</ele>
        <time>2021-09-08T12:48:59.000Z</time>
      </trkpt>
      <trkpt lat="49.08421" lon="7.05047">
        <ele>228.40456</ele>
        <time>2021-09-08T12:49:07.000Z</time>
      </trkpt>
      <trkpt lat="49.08418" lon="7.05059">
        <ele>228.1949</ele>
        <time>2021-09-08T12:49:12.000Z</time>
      </trkpt>
      <trkpt lat="49.08411" lon="7.05109">
        <ele>227.29993</ele>
        <time>2021-09-08T12:49:45.000Z</time>
      </trkpt>
      <trkpt lat="49.0841" lon="7.05121">
        <ele>227.06212</ele>
        <time>2021-09-08T12:49:53.000Z</time>
      </trkpt>
      <trkpt lat="49.08412" lon="7.05133">
        <ele>226.89266</ele>
        <time>2021-09-08T12:50:00.000Z</time>
      </trkpt>
      <trkpt lat="49.08411" lon="7.05146">
        <ele>226.62787</ele>
        <time>2021-09-08T12:50:09.000Z</time>
      </trkpt>
      <trkpt lat="49.08408" lon="7.05159">
        <ele>226.31343</ele>
        <time>2021-09-08T12:50:15.000Z</time>
      </trkpt>
      <trkpt lat="49.08403" lon="7.05168">
        <ele>226.00389</ele>
        <time>2021-09-08T12:50:26.000Z</time>
      </trkpt>
      <trkpt lat="49.08398" lon="7.05193">
        <ele>225.70148</ele>
        <time>2021-09-08T12:50:42.000Z</time>
      </trkpt>
      <trkpt lat="49.08393" lon="7.05203">
        <ele>225.52849</ele>
        <time>2021-09-08T12:50:52.000Z</time>
      </trkpt>
      <trkpt lat="49.08391" lon="7.05217">
        <ele>225.55787</ele>
        <time>2021-09-08T12:51:03.000Z</time>
      </trkpt>
      <trkpt lat="49.08391" lon="7.05228">
        <ele>225.67727</ele>
        <time>2021-09-08T12:51:09.000Z</time>
      </trkpt>
      <trkpt lat="49.08389" lon="7.0524">
        <ele>225.71711</ele>
        <time>2021-09-08T12:51:14.000Z</time>
      </trkpt>
      <trkpt lat="49.08379" lon="7.0526">
        <ele>225.45488</ele>
        <time>2021-09-08T12:51:28.000Z</time>
      </trkpt>
      <trkpt lat="49.08379" lon="7.05286">
        <ele>225.84318</ele>
        <time>2021-09-08T12:51:44.000Z</time>
      </trkpt>
      <trkpt lat="49.08374" lon="7.05296">
        <ele>225.66907</ele>
        <time>2021-09-08T12:51:51.000Z</time>
      </trkpt>
      <trkpt lat="49.08368" lon="7.05321">
        <ele>225.62917</ele>
        <time>2021-09-08T12:52:09.000Z</time>
      </trkpt>
      <trkpt lat="49.08363" lon="7.05332">
        <ele>225.44219</ele>
        <time>2021-09-08T12:52:15.000Z</time>
      </trkpt>
      <trkpt lat="49.0836" lon="7.05356">
        <ele>225.46138</ele>
        <time>2021-09-08T12:52:31.000Z</time>
      </trkpt>
      <trkpt lat="49.08357" lon="7.05368">
        <ele>225.34395</ele>
        <time>2021-09-08T12:52:41.000Z</time>
      </trkpt>
      <trkpt lat="49.08355" lon="7.05406">
        <ele>225.39831</ele>
        <time>2021-09-08T12:53:02.000Z</time>
      </trkpt>
      <trkpt lat="49.08347" lon="7.05427">
        <ele>225.01507</ele>
        <time>2021-09-08T12:53:13.000Z</time>
      </trkpt>
      <trkpt lat="49.08341" lon="7.0545">
        <ele>224.86683</ele>
        <time>2021-09-08T12:53:28.000Z</time>
      </trkpt>
      <trkpt lat="49.08337" lon="7.05461">
        <ele>224.71369</ele>
        <time>2021-09-08T12:53:34.000Z</time>
      </trkpt>
      <trkpt lat="49.08336" lon="7.05499">
        <ele>225.35476</ele>
        <time>2021-09-08T12:54:01.000Z</time>
      </trkpt>
      <trkpt lat="49.08335" lon="7.05512">
        <ele>225.45175</ele>
        <time>2021-09-08T12:54:05.000Z</time>
      </trkpt>
      <trkpt lat="49.08325" lon="7.05531">
        <ele>224.9879</ele>
        <time>2021-09-08T12:54:17.000Z</time>
      </trkpt>
      <trkpt lat="49.08316" lon="7.05554">
        <ele>224.64229</ele>
        <time>2021-09-08T12:54:29.000Z</time>
      </trkpt>
      <trkpt lat="49.08315" lon="7.05567">
        <ele>224.73135</ele>
        <time>2021-09-08T12:54:37.000Z</time>
      </trkpt>
      <trkpt lat="49.08312" lon="7.05579">
        <ele>224.71081</ele>
        <time>2021-09-08T12:54:44.000Z</time>
      </trkpt>
      <trkpt lat="49.08301" lon="7.0561">
        <ele>224.22972</ele>
        <time>2021-09-08T12:55:07.000Z</time>
      </trkpt>
      <trkpt lat="49.08291" lon="7.05629">
        <ele>223.57491</ele>
        <time>2021-09-08T12:55:22.000Z</time>
      </trkpt>
      <trkpt lat="49.08278" lon="7.05663">
        <ele>222.8501</ele>
        <time>2021-09-08T12:55:44.000Z</time>
      </trkpt>
      <trkpt lat="49.08272" lon="7.05673">
        <ele>222.43837</ele>
        <time>2021-09-08T12:55:51.000Z</time>
      </trkpt>
      <trkpt lat="49.08267" lon="7.05685">
        <ele>222.21573</ele>
        <time>2021-09-08T12:56:06.000Z</time>
      </trkpt>
      <trkpt lat="49.08266" lon="7.05697">
        <ele>222.22941</ele>
        <time>2021-09-08T12:56:16.000Z</time>
      </trkpt>
      <trkpt lat="49.08261" lon="7.05708">
        <ele>221.94559</ele>
        <time>2021-09-08T12:56:21.000Z</time>
      </trkpt>
      <trkpt lat="49.08259" lon="7.0572">
        <ele>221.88891</ele>
        <time>2021-09-08T12:56:31.000Z</time>
      </trkpt>
      <trkpt lat="49.08249" lon="7.05739">
        <ele>221.42728</ele>
        <time>2021-09-08T12:56:49.000Z</time>
      </trkpt>
      <trkpt lat="49.08247" lon="7.05752">
        <ele>221.41335</ele>
        <time>2021-09-08T12:56:57.000Z</time>
      </trkpt>
      <trkpt lat="49.08241" lon="7.05761">
        <ele>221.14685</ele>
        <time>2021-09-08T12:57:04.000Z</time>
      </trkpt>
      <trkpt lat="49.08238" lon="7.05773">
        <ele>221.0856</ele>
        <time>2021-09-08T12:57:17.000Z</time>
      </trkpt>
      <trkpt lat="49.08239" lon="7.05785">
        <ele>221.20363</ele>
        <time>2021-09-08T12:57:24.000Z</time>
      </trkpt>
      <trkpt lat="49.08237" lon="7.05798">
        <ele>221.19734</ele>
        <time>2021-09-08T12:57:32.000Z</time>
      </trkpt>
      <trkpt lat="49.08233" lon="7.0581">
        <ele>221.07703</ele>
        <time>2021-09-08T12:57:38.000Z</time>
      </trkpt>
      <trkpt lat="49.08233" lon="7.05836">
        <ele>221.12343</ele>
        <time>2021-09-08T12:58:02.000Z</time>
      </trkpt>
      <trkpt lat="49.08234" lon="7.05848">
        <ele>221.16091</ele>
        <time>2021-09-08T12:58:11.000Z</time>
      </trkpt>
      <trkpt lat="49.08242" lon="7.05871">
        <ele>221.34669</ele>
        <time>2021-09-08T12:58:27.000Z</time>
      </trkpt>
      <trkpt lat="49.08244" lon="7.05885">
        <ele>221.27723</ele>
        <time>2021-09-08T12:58:33.000Z</time>
      </trkpt>
      <trkpt lat="49.08244" lon="7.05898">
        <ele>221.0762</ele>
        <time>2021-09-08T12:58:38.000Z</time>
      </trkpt>
      <trkpt lat="49.08243" lon="7.05911">
        <ele>220.80925</ele>
        <time>2021-09-08T12:58:45.000Z</time>
      </trkpt>
      <trkpt lat="49.08243" lon="7.05924">
        <ele>220.6521</ele>
        <time>2021-09-08T12:58:53.000Z</time>
      </trkpt>
      <trkpt lat="49.08245" lon="7.05936">
        <ele>220.57992</ele>
        <time>2021-09-08T12:59:02.000Z</time>
      </trkpt>
      <trkpt lat="49.08246" lon="7.05961">
        <ele>220.27601</ele>
        <time>2021-09-08T12:59:16.000Z</time>
      </trkpt>
      <trkpt lat="49.08245" lon="7.05974">
        <ele>220.09138</ele>
        <time>2021-09-08T12:59:22.000Z</time>
      </trkpt>
      <trkpt lat="49.0825" lon="7.05999">
        <ele>220.07037</ele>
        <time>2021-09-08T12:59:36.000Z</time>
      </trkpt>
      <trkpt lat="49.08245" lon="7.0601">
        <ele>219.78492</ele>
        <time>2021-09-08T12:59:46.000Z</time>
      </trkpt>
      <trkpt lat="49.08243" lon="7.06023">
        <ele>219.63104</ele>
        <time>2021-09-08T12:59:53.000Z</time>
      </trkpt>
      <trkpt lat="49.08249" lon="7.06061">
        <ele>219.78311</ele>
        <time>2021-09-08T13:00:18.000Z</time>
      </trkpt>
      <trkpt lat="49.08251" lon="7.06072">
        <ele>219.89014</ele>
        <time>2021-09-08T13:00:27.000Z</time>
      </trkpt>
      <trkpt lat="49.08251" lon="7.06084">
        <ele>219.85093</ele>
        <time>2021-09-08T13:00:33.000Z</time>
      </trkpt>
      <trkpt lat="49.08253" lon="7.06096">
        <ele>219.9202</ele>
        <time>2021-09-08T13:00:43.000Z</time>
      </trkpt>
      <trkpt lat="49.08256" lon="7.06107">
        <ele>220.04078</ele>
        <time>2021-09-08T13:00:50.000Z</time>
      </trkpt>
      <trkpt lat="49.08258" lon="7.0612">
        <ele>220.08382</ele>
        <time>2021-09-08T13:01:00.000Z</time>
      </trkpt>
      <trkpt lat="49.08267" lon="7.06142">
        <ele>220.38615</ele>
        <time>2021-09-08T13:01:14.000Z</time>
      </trkpt>
      <trkpt lat="49.08272" lon="7.06152">
        <ele>220.53835</ele>
        <time>2021-09-08T13:01:23.000Z</time>
      </trkpt>
      <trkpt lat="49.08275" lon="7.06164">
        <ele>220.53545</ele>
        <time>2021-09-08T13:01:31.000Z</time>
      </trkpt>
      <trkpt lat="49.08282" lon="7.062">
        <ele>220.12226</ele>
        <time>2021-09-08T13:01:52.000Z</time>
      </trkpt>
      <trkpt lat="49.08288" lon="7.0621">
        <ele>220.04567</ele>
        <time>2021-09-08T13:02:04.000Z</time>
      </trkpt>
      <trkpt lat="49.08292" lon="7.06221">
        <ele>219.82574</ele>
        <time>2021-09-08T13:02:10.000Z</time>
      </trkpt>
      <trkpt lat="49.08294" lon="7.06233">
        <ele>219.51487</ele>
        <time>2021-09-08T13:02:16.000Z</time>
      </trkpt>
      <trkpt lat="49.08297" lon="7.06245">
        <ele>219.24501</ele>
        <time>2021-09-08T13:02:23.000Z</time>
      </trkpt>
      <trkpt lat="49.08302" lon="7.06254">
        <ele>219.10211</ele>
        <time>2021-09-08T13:02:32.000Z</time>
      </trkpt>
      <trkpt lat="49.08306" lon="7.06263">
        <ele>218.93222</ele>
        <time>2021-09-08T13:02:39.000Z</time>
      </trkpt>
      <trkpt lat="49.08313" lon="7.0627">
        <ele>218.91861</ele>
        <time>2021-09-08T13:02:48.000Z</time>
      </trkpt>
      <trkpt lat="49.08318" lon="7.0628">
        <ele>218.82919</ele>
        <time>2021-09-08T13:02:57.000Z</time>
      </trkpt>
      <trkpt lat="49.08324" lon="7.06287">
        <ele>218.92007</ele>
        <time>2021-09-08T13:03:03.000Z</time>
      </trkpt>
      <trkpt lat="49.0833" lon="7.06296">
        <ele>218.97477</ele>
        <time>2021-09-08T13:03:10.000Z</time>
      </trkpt>
      <trkpt lat="49.08333" lon="7.06307">
        <ele>218.96107</ele>
        <time>2021-09-08T13:03:16.000Z</time>
      </trkpt>
      <trkpt lat="49.08337" lon="7.06318">
        <ele>219.02347</ele>
        <time>2021-09-08T13:03:24.000Z</time>
      </trkpt>
      <trkpt lat="49.08343" lon="7.06327">
        <ele>219.15244</ele>
        <time>2021-09-08T13:03:31.000Z</time>
      </trkpt>
      <trkpt lat="49.08348" lon="7.06339">
        <ele>219.2045</ele>
        <time>2021-09-08T13:03:41.000Z</time>
      </trkpt>
      <trkpt lat="49.08353" lon="7.06349">
        <ele>219.29962</ele>
        <time>2021-09-08T13:03:52.000Z</time>
      </trkpt>
      <trkpt lat="49.08367" lon="7.06365">
        <ele>219.50878</ele>
        <time>2021-09-08T13:04:11.000Z</time>
      </trkpt>
      <trkpt lat="49.08374" lon="7.06374">
        <ele>219.4585</ele>
        <time>2021-09-08T13:04:18.000Z</time>
      </trkpt>
      <trkpt lat="49.08381" lon="7.06378">
        <ele>219.55055</ele>
        <time>2021-09-08T13:04:23.000Z</time>
      </trkpt>
      <trkpt lat="49.08393" lon="7.06397">
        <ele>219.20887</ele>
        <time>2021-09-08T13:04:39.000Z</time>
      </trkpt>
      <trkpt lat="49.08406" lon="7.06413">
        <ele>218.95245</ele>
        <time>2021-09-08T13:04:53.000Z</time>
      </trkpt>
      <trkpt lat="49.0842" lon="7.06427">
        <ele>218.86804</ele>
        <time>2021-09-08T13:05:06.000Z</time>
      </trkpt>
      <trkpt lat="49.08425" lon="7.06435">
        <ele>218.80582</ele>
        <time>2021-09-08T13:05:12.000Z</time>
      </trkpt>
      <trkpt lat="49.08442" lon="7.06464">
        <ele>218.5173</ele>
        <time>2021-09-08T13:05:29.000Z</time>
      </trkpt>
      <trkpt lat="49.0845" lon="7.06488">
        <ele>218.04792</ele>
        <time>2021-09-08T13:05:48.000Z</time>
      </trkpt>
      <trkpt lat="49.08456" lon="7.06496">
        <ele>218.02325</ele>
        <time>2021-09-08T13:05:58.000Z</time>
      </trkpt>
      <trkpt lat="49.08461" lon="7.06508">
        <ele>217.83542</ele>
        <time>2021-09-08T13:06:02.000Z</time>
      </trkpt>
      <trkpt lat="49.08475" lon="7.06527">
        <ele>217.72278</ele>
        <time>2021-09-08T13:06:12.000Z</time>
      </trkpt>
      <trkpt lat="49.08475" lon="7.06538">
        <ele>217.43324</ele>
        <time>2021-09-08T13:06:22.000Z</time>
      </trkpt>
      <trkpt lat="49.08481" lon="7.06548">
        <ele>217.37163</ele>
        <time>2021-09-08T13:06:29.000Z</time>
      </trkpt>
      <trkpt lat="49.08485" lon="7.0656">
        <ele>217.2603</ele>
        <time>2021-09-08T13:06:47.000Z</time>
      </trkpt>
      <trkpt lat="49.08497" lon="7.06577">
        <ele>217.28421</ele>
        <time>2021-09-08T13:07:18.000Z</time>
      </trkpt>
      <trkpt lat="49.08501" lon="7.06585">
        <ele>217.25784</ele>
        <time>2021-09-08T13:07:35.000Z</time>
      </trkpt>
      <trkpt lat="49.08504" lon="7.0659">
        <ele>217.26645</ele>
        <time>2021-09-08T13:08:47.000Z</time>
      </trkpt>
      <trkpt lat="49.0851" lon="7.06599">
        <ele>217.30026</ele>
        <time>2021-09-08T13:09:02.000Z</time>
      </trkpt>
      <trkpt lat="49.08518" lon="7.06609">
        <ele>217.34555</ele>
        <time>2021-09-08T13:09:32.000Z</time>
      </trkpt>
      <trkpt lat="49.08525" lon="7.06614">
        <ele>217.42199</ele>
        <time>2021-09-08T13:09:56.000Z</time>
      </trkpt>
      <trkpt lat="49.08543" lon="7.06618">
        <ele>217.67541</ele>
      </trkpt>
      <trkpt lat="49.08563" lon="7.06622">
        <ele>217.90051</ele>
      </trkpt>
      <trkpt lat="49.08578" lon="7.06624">
        <ele>218.07079</ele>
      </trkpt>
      <trkpt lat="49.08587" lon="7.06623">
        <ele>218.2338</ele>
      </trkpt>
      <trkpt lat="49.086" lon="7.06622">
        <ele>218.44141</ele>
      </trkpt>
      <trkpt lat="49.08614" lon="7.06615">
        <ele>218.86513</ele>
      </trkpt>
      <trkpt lat="49.08622" lon="7.06611">
        <ele>219.14162</ele>
      </trkpt>
      <trkpt lat="49.08632" lon="7.0661">
        <ele>219.22711</ele>
      </trkpt>
      <trkpt lat="49.08648" lon="7.06606">
        <ele>219.36391</ele>
      </trkpt>
      <trkpt lat="49.08656" lon="7.06603">
        <ele>219.40468</ele>
      </trkpt>
      <trkpt lat="49.08663" lon="7.06599">
        <ele>219.49864</ele>
      </trkpt>
      <trkpt lat="49.0867" lon="7.0659">
        <ele>219.75781</ele>
      </trkpt>
      <trkpt lat="49.08678" lon="7.06585">
        <ele>219.72863</ele>
      </trkpt>
      <trkpt lat="49.08694" lon="7.06585">
        <ele>218.92386</ele>
      </trkpt>
      <trkpt lat="49.08703" lon="7.06581">
        <ele>218.56234</ele>
      </trkpt>
      <trkpt lat="49.08719" lon="7.06576">
        <ele>217.84944</ele>
      </trkpt>
      <trkpt lat="49.08739" lon="7.06567">
        <ele>217.29714</ele>
      </trkpt>
      <trkpt lat="49.0877" lon="7.06557">
        <ele>217.4487</ele>
      </trkpt>
      <trkpt lat="49.08784" lon="7.06555">
        <ele>218.00274</ele>
      </trkpt>
      <trkpt lat="49.08798" lon="7.06561">
        <ele>218.79284</ele>
      </trkpt>
      <trkpt lat="49.08801" lon="7.06556">
        <ele>218.9865</ele>
      </trkpt>
      <trkpt lat="49.08807" lon="7.06552">
        <ele>219.2704</ele>
      </trkpt>
      <trkpt lat="49.08795" lon="7.06555">
        <ele>218.58166</ele>
      </trkpt>
      <trkpt lat="49.08788" lon="7.06551">
        <ele>218.16686</ele>
      </trkpt>
      <trkpt lat="49.08778" lon="7.06529">
        <ele>217.91524</ele>
      </trkpt>
      <trkpt lat="49.08772" lon="7.06508">
        <ele>218.09342</ele>
      </trkpt>
      <trkpt lat="49.08772" lon="7.06477">
        <ele>218.49856</ele>
      </trkpt>
      <trkpt lat="49.08782" lon="7.06451">
        <ele>218.67427</ele>
      </trkpt>
      <trkpt lat="49.088" lon="7.06416">
        <ele>219.31133</ele>
      </trkpt>
      <trkpt lat="49.08815" lon="7.06394">
        <ele>219.91827</ele>
      </trkpt>
      <trkpt lat="49.08844" lon="7.06385">
        <ele>220.14731</ele>
      </trkpt>
      <trkpt lat="49.08851" lon="7.06376">
        <ele>220.45308</ele>
      </trkpt>
      <trkpt lat="49.08858" lon="7.06345">
        <ele>221.0076</ele>
      </trkpt>
      <trkpt lat="49.08859" lon="7.06333">
        <ele>221.15427</ele>
      </trkpt>
      <trkpt lat="49.08859" lon="7.06302">
        <ele>221.52893</ele>
      </trkpt>
      <trkpt lat="49.08871" lon="7.0628">
        <ele>221.34349</ele>
      </trkpt>
      <trkpt lat="49.08892" lon="7.06251">
        <ele>220.85009</ele>
      </trkpt>
      <trkpt lat="49.08918" lon="7.06217">
        <ele>220.68005</ele>
      </trkpt>
      <trkpt lat="49.08926" lon="7.06187">
        <ele>220.75728</ele>
      </trkpt>
      <trkpt lat="49.08927" lon="7.06138">
        <ele>220.43824</ele>
      </trkpt>
      <trkpt lat="49.08927" lon="7.06116">
        <ele>220.34919</ele>
      </trkpt>
      <trkpt lat="49.08931" lon="7.06096">
        <ele>220.55267</ele>
      </trkpt>
      <trkpt lat="49.08942" lon="7.0608">
        <ele>220.99743</ele>
      </trkpt>
      <trkpt lat="49.08953" lon="7.06079">
        <ele>221.2358</ele>
      </trkpt>
      <trkpt lat="49.08958" lon="7.06065">
        <ele>221.50913</ele>
      </trkpt>
      <trkpt lat="49.0896" lon="7.06047">
        <ele>221.79178</ele>
      </trkpt>
      <trkpt lat="49.08968" lon="7.06025">
        <ele>222.0792</ele>
      </trkpt>
      <trkpt lat="49.08965" lon="7.05972">
        <ele>223.67426</ele>
      </trkpt>
      <trkpt lat="49.08979" lon="7.05975">
        <ele>222.85259</ele>
      </trkpt>
      <trkpt lat="49.08974" lon="7.05921">
        <ele>224.82906</ele>
      </trkpt>
      <trkpt lat="49.09" lon="7.05845">
        <ele>225.90905</ele>
      </trkpt>
      <trkpt lat="49.09025" lon="7.05776">
        <ele>226.38171</ele>
      </trkpt>
      <trkpt lat="49.09025" lon="7.05757">
        <ele>226.65272</ele>
      </trkpt>
      <trkpt lat="49.09037" lon="7.05744">
        <ele>226.35247</ele>
      </trkpt>
      <trkpt lat="49.09049" lon="7.05696">
        <ele>226.68089</ele>
      </trkpt>
      <trkpt lat="49.09112" lon="7.05603">
        <ele>227.63265</ele>
      </trkpt>
      <trkpt lat="49.09122" lon="7.05556">
        <ele>229.04256</ele>
      </trkpt>
      <trkpt lat="49.09131" lon="7.05561">
        <ele>228.97287</ele>
      </trkpt>
      <trkpt lat="49.09138" lon="7.05499">
        <ele>228.91698</ele>
      </trkpt>
      <trkpt lat="49.09147" lon="7.05455">
        <ele>229.49684</ele>
      </trkpt>
      <trkpt lat="49.09179" lon="7.05329">
        <ele>231.52998</ele>
      </trkpt>
      <trkpt lat="49.09181" lon="7.05293">
        <ele>231.71779</ele>
      </trkpt>
      <trkpt lat="49.0925" lon="7.05114">
        <ele>231.26254</ele>
      </trkpt>
      <trkpt lat="49.09258" lon="7.05065">
        <ele>232.7636</ele>
      </trkpt>
      <trkpt lat="49.0926" lon="7.05047">
        <ele>233.29101</ele>
      </trkpt>
      <trkpt lat="49.09254" lon="7.05006">
        <ele>234.28717</ele>
      </trkpt>
      <trkpt lat="49.09249" lon="7.04971">
        <ele>234.91423</ele>
      </trkpt>
      <trkpt lat="49.09249" lon="7.04957">
        <ele>235.06403</ele>
      </trkpt>
      <trkpt lat="49.09247" lon="7.04939">
        <ele>235.29787</ele>
      </trkpt>
      <trkpt lat="49.09243" lon="7.04918">
        <ele>235.66036</ele>
      </trkpt>
      <trkpt lat="49.09239" lon="7.04911">
        <ele>235.92395</ele>
      </trkpt>
      <trkpt lat="49.09224" lon="7.04882">
        <ele>237.13192</ele>
      </trkpt>
      <trkpt lat="49.09219" lon="7.04861">
        <ele>237.5906</ele>
      </trkpt>
      <trkpt lat="49.09221" lon="7.04841">
        <ele>237.49634</ele>
      </trkpt>
      <trkpt lat="49.09237" lon="7.04815">
        <ele>236.72453</ele>
      </trkpt>
      <trkpt lat="49.09238" lon="7.04783">
        <ele>236.45845</ele>
      </trkpt>
      <trkpt lat="49.09218" lon="7.04701">
        <ele>237.02209</ele>
      </trkpt>
      <trkpt lat="49.09227" lon="7.04633">
        <ele>237.71295</ele>
      </trkpt>
      <trkpt lat="49.09227" lon="7.04607">
        <ele>238.50236</ele>
      </trkpt>
      <trkpt lat="49.09223" lon="7.04598">
        <ele>238.87512</ele>
      </trkpt>
      <trkpt lat="49.09217" lon="7.04593">
        <ele>239.16626</ele>
      </trkpt>
      <trkpt lat="49.09199" lon="7.04589">
        <ele>239.8804</ele>
      </trkpt>
      <trkpt lat="49.09185" lon="7.04583">
        <ele>240.64631</ele>
      </trkpt>
      <trkpt lat="49.09177" lon="7.04564">
        <ele>241.1776</ele>
      </trkpt>
      <trkpt lat="49.09175" lon="7.04527">
        <ele>241.50547</ele>
      </trkpt>
      <trkpt lat="49.09169" lon="7.04516">
        <ele>241.74136</ele>
      </trkpt>
      <trkpt lat="49.0916" lon="7.04508">
        <ele>242.02141</ele>
      </trkpt>
      <trkpt lat="49.09139" lon="7.04459">
        <ele>243.50064</ele>
      </trkpt>
      <trkpt lat="49.09127" lon="7.04448">
        <ele>244.26928</ele>
      </trkpt>
      <trkpt lat="49.09121" lon="7.04435">
        <ele>244.77966</ele>
      </trkpt>
      <trkpt lat="49.09117" lon="7.04409">
        <ele>245.52268</ele>
      </trkpt>
      <trkpt lat="49.09103" lon="7.04382">
        <ele>246.50394</ele>
      </trkpt>
      <trkpt lat="49.09047" lon="7.04389">
        <ele>248.46399</ele>
      </trkpt>
      <trkpt lat="49.09006" lon="7.04381">
        <ele>249.92178</ele>
      </trkpt>
      <trkpt lat="49.08973" lon="7.04381">
        <ele>250.57406</ele>
      </trkpt>
      <trkpt lat="49.08962" lon="7.04378">
        <ele>250.71903</ele>
      </trkpt>
      <trkpt lat="49.08952" lon="7.04373">
        <ele>250.83896</ele>
      </trkpt>
      <trkpt lat="49.08939" lon="7.04354">
        <ele>250.97334</ele>
      </trkpt>
      <trkpt lat="49.08921" lon="7.043">
        <ele>251.099</ele>
      </trkpt>
      <trkpt lat="49.08899" lon="7.04289">
        <ele>251.0019</ele>
      </trkpt>
      <trkpt lat="49.08894" lon="7.04302">
        <ele>250.93838</ele>
      </trkpt>
      <trkpt lat="49.08891" lon="7.04303">
        <ele>250.9</ele>
      </trkpt>
    </trkseg>
  </trk>
</gpx>